Youngstown, OH (44501)

9:58 AM EDT on July 30, 2016 (GMT -0400)
Downtown Youngstown | | Change Station

Elev 873 ft 41.10 °N, 80.65 °W | Updated 1 second ago

Rain
Rain
69.7 °F
Feels Like 69.7 °F
N
0.0
Wind Variable Wind from SE
Gusts 3.0 mph

Today
High -- | Low -- °F
--% Chance of Precip.
Yesterday
High -- | Low -- °F
Precip. -- in
Pressure 29.96 in
Visibility 10.0 miles
Clouds Scattered Clouds 600 ft
Scattered Clouds 3000 ft
Mostly Cloudy 13000 ft
Mostly Cloudy 18000 ft
Dew Point 67 °F
Humidity 92%
Rainfall 0.05 in
Snow Depth Not available.
6:16 AM 8:40 PM
Waning Crescent, 13% visible
METAR KYNG 301351Z 10005KT 10SM SCT006 SCT030 BKN130 BKN180 22/19 A2998 RMK AO2 SLP145 T02170194
Pressure 29.96 in
Visibility 10.0 miles
Clouds Scattered Clouds 600 ft
Scattered Clouds 3000 ft
Mostly Cloudy 13000 ft
Mostly Cloudy 18000 ft
Dew Point 67 °F
Humidity 92%
Rainfall 0.05 in
Snow Depth Not available.
6:16 AM 8:40 PM
Waning Crescent, 13% visible
METAR KYNG 301351Z 10005KT 10SM SCT006 SCT030 BKN130 BKN180 22/19 A2998 RMK AO2 SLP145 T02170194

10-Day Weather Forecast

Almanac

Astronomy

Jul. 30, 2016 Rise Set
Actual Time
Civil Twilight
Nautical Twilight
Astronomical Twilight
Moon
Length of Visible Light
Length of Day
Tomorrow will be .
, % of the Moon is Illuminated

Today's Extremes

State Highs State Lows

Community

WunderPhotos

Upload Photos

1,928,560 photos uploaded!

WunderBlog® & News

Nearby

Air Quality

  Air Quality AQ Index Pollutant
Not available.

Snow Depth

Station Depth Elevation

Earthquake Activity

City Distance Mag. Time & Date
Minimum magnitude displayed is 2.5.

Coastal Water Temperatures

Place Temperature

Stations

Nearby Weather Stations

Station Location Temp. Windchill Dew Point Humidity Wind Precip. Elev Updated Type
                   

Watches & Warnings

There are currently no watches in effect.